Nearby METAR Reports

 

KSJC - San Jose, California, USA
Distance from station: NØ 14km
Opdateret: 18/07/2018 04:31
Few Clouds
Few Clouds
 Vind retning VNV
Vind: VNV 17 km/h
Temperatur: 23°C
Dugpunkt: 16°C
Fugtighed: 65%
Barometer: 1013.5 hPa
Clouds: Few Clouds
Visibility: 16 km
Cloud details: Few Clouds 152 m
Few Clouds 2134 m
Few Clouds 4877 m
2018/07/18 02:31 KSJC 180231Z 30009KT 10SM FEW005 FEW070 FEW160 23/16 A2993 RMK AO2 FU FEW005 T02280156
KNUQ - Moffett Nas/Mtn, California, USA
Distance from station: N 14km
Opdateret: 18/07/2018 03:56
Klart
Klart
 Vind retning NNV
Vind: NNV 17 km/h
Temperatur: 19°C
Dugpunkt: 15°C
Fugtighed: 78%
Barometer: 1013.9 hPa
Clouds: Klart
Visibility: 16 km
2018/07/18 01:56 KNUQ 180156Z 34009KT 10SM CLR 19/15 A2994 RMK AO2 SLP141 T01940150
 
KPAO - Palo Alto, California, USA
Distance from station: NNV 23km
Opdateret: 18/07/2018 03:47
Few Clouds
Few Clouds
 Vind retning NNV
Vind: NNV 19 km/h
Temperatur: 21°C
Dugpunkt: 15°C
Fugtighed: 69%
Barometer: 1013.9 hPa
Clouds: Few Clouds
Visibility: 16 km
Cloud details: Few Clouds 5486 m
2018/07/18 01:47 KPAO 180147Z 33010KT 10SM FEW180 21/15 A2994
KRHV - San Jose/Reid, California, USA
Distance from station: ØNØ 19km
Opdateret: 18/07/2018 03:50
Klart
Klart
 Vind retning NNV
Vind: NNV 11 km/h
Temperatur: 27°C
Heat Index: 27°C
Dugpunkt: 15°C
Fugtighed: 48%
Barometer: 1012.5 hPa
Clouds: Klart
Visibility: 16 km
2018/07/18 01:50 KRHV 180150Z 33006KT 10SM SKC 27/15 A2990
 
KOAK - Oakland, California, USA
Distance from station: NNV 50km
Opdateret: 18/07/2018 03:53
Few Clouds
Few Clouds
 Vind retning V
Vind: V 28 km/h
Temperatur: 18°C
Dugpunkt: 14°C
Fugtighed: 78%
Barometer: 1014.2 hPa
Clouds: Few Clouds
Visibility: 16 km
Cloud details: Few Clouds 305 m
Few Clouds 6096 m
2018/07/18 01:53 KOAK 180153Z 28015KT 10SM FEW010 FEW200 18/14 A2995 RMK AO2 SLP142 T01780139
KSQL - San Carlos Airpo, California, USA
Distance from station: NV 34km
Opdateret: 18/07/2018 03:47
Few Clouds
Few Clouds
 Vind retning N
Vind: N 11 km/h
Temperatur: 23°C
Dugpunkt: 14°C
Fugtighed: 57%
Barometer: 1013.5 hPa
Clouds: Few Clouds
Visibility: 16 km
Cloud details: Few Clouds 5486 m
2018/07/18 01:47 KSQL 180147Z 35006KT 10SM FEW180 23/14 A2993
 
KSFO - San Francisco, California, USA
Distance from station: NV 49km
Opdateret: 18/07/2018 03:56
Few Clouds
Few Clouds
 Vind retning VNV
Vind: VNV 33 km/h
Temperatur: 16°C
Dugpunkt: 12°C
Fugtighed: 77%
Barometer: 1013.9 hPa
Clouds: Few Clouds
Visibility: 16 km
Cloud details: Few Clouds 122 m
Few Clouds 6096 m
2018/07/18 01:56 KSFO 180156Z 29018KT 10SM FEW004 FEW200 16/12 A2994 RMK AO2 PK WND 29026/0127 SLP138 T01610122
KE16 - San Martin, California, USA
Distance from station: ØSØ 43km
Opdateret: 18/07/2018 04:15
Klart
Klart
 Vind retning SØ
Vind: SØ 20 km/h
Temperatur: 24°C
Dugpunkt: 12°C
Fugtighed: 47%
Barometer: 1013.9 hPa
Clouds: Klart
Visibility: 16 km
2018/07/18 02:15 KE16 180215Z AUTO 14011KT 10SM CLR 24/12 A2994 RMK AO2
 
KWVI - Watsonville, California, USA
Distance from station: SSØ 44km
Opdateret: 18/07/2018 04:00
Mest skyet
Mest skyet
 Vind retning SSV
Vind: SSV 11 km/h
Temperatur: 14°C
Dugpunkt: 14°C
Fugtighed: 100%
Barometer: 1015.2 hPa
Clouds: Mest skyet
Visibility: 16 km
Cloud details: Mest skyet 152 m
2018/07/18 02:00 KWVI 180200Z AUTO 21006KT 10SM BKN005 14/14 A2998 RMK AO2 T01440139
KHAF - Half Moon Bay, California, USA
Distance from station: VNV 50km
Opdateret: 18/07/2018 04:20
Mist, Overskyet
Mist, Overskyet
 Vind retning VNV
Vind: VNV 7 km/h
Temperatur: 14°C
Dugpunkt: 13°C
Fugtighed: 94%
Barometer: 1015.6 hPa
Oversigt: Mist
Clouds: Overskyet
Visibility: 6 km
Cloud details: Overskyet 122 m
2018/07/18 02:20 KHAF 180220Z AUTO 30004KT 4SM BR OVC004 14/13 A2999 RMK AO2
 
KHWD - Hayward, California, USA
Distance from station: N 44km
Opdateret: 18/07/2018 03:54
Klart
Klart
 Vind retning VNV
Vind: VNV 19 km/h
Temperatur: 21°C
Dugpunkt: 13°C
Fugtighed: 60%
Barometer: 1013.9 hPa
Clouds: Klart
Visibility: 16 km
2018/07/18 01:54 KHWD 180154Z 29010KT 10SM CLR 21/13 A2994 RMK AO2 SLP147 T02060133
KLVK - Livermore, California, USA
Distance from station: NNØ 51km
Opdateret: 18/07/2018 03:53
Klart
Klart
 Vind retning VNV
Vind: VNV 20 km/h
Temperatur: 31°C
Dugpunkt: 6°C
Fugtighed: 21%
Barometer: 1012.5 hPa
Clouds: Klart
Visibility: 16 km
2018/07/18 01:53 KLVK 180153Z AUTO 29011KT 10SM CLR 31/06 A2990 RMK AO2 SLP121 T03060061